RORY

Details ICAO RORY (RNJ)
Name YORON
Region Japan
Timezone Asia/Tokyo (UTC+9.0)
Plans Departing 2
Arriving 6
Stats Elevation 52 ft / 16 m (AMSL)
Location 27.043964° 128.401518°
Runways 1
Magnetic Variation 5.523° W
Sunrise 2018-05-20 20:37:16 UTC / 2018-05-21 05:37:16 Local
Sunset 2018-05-21 10:11:30 UTC / 2018-05-21 19:11:30 Local
Advertisement - Login to hide

Runways

ID Width Length Bearing (true) Bearing (mag) Surface Threshold Offset Overrun Length
14 100 ft / 30 m 4,327 ft / 1,319 m 138.22° 143.74° Asphalt 200 ft / 61 m 0 ft / 0 m
32 100 ft / 30 m 4,327 ft / 1,319 m 318.23° 323.75° Asphalt 200 ft / 61 m 0 ft / 0 m

Map

Weather


0- 5 10 15 20 25 30 35+ Temperature / ° C

Clouds and Precipitation
Forecast for 2018-05-21 12:00 UTC. Updated 2 hours ago

Ground ~20,000 ft ~40,000 ft Winds

METAR

RORY 211100Z AUTO VRB01KT 9999 BKN013 BKN019 BKN048 25/24 Q1008

TAF

Not found

Frequencies

Tower 118.30 MHz REMOTE
Warning: Do not use this data for real-world aviation or navigation. No guarantee of current accuracy is given.